sensor_id;sensor_type;location;lat;lon;timestamp;pressure;altitude;pressure_sealevel;temperature;humidity
25638;BME280;13496;51.040;13.680;2023-02-07T00:01:36;102240.19;;;14.89;53.19
25638;BME280;13496;51.040;13.680;2023-02-07T00:06:38;102246.25;;;14.89;53.16
25638;BME280;13496;51.040;13.680;2023-02-07T00:11:39;102260.34;;;14.87;53.26
25638;BME280;13496;51.040;13.680;2023-02-07T00:16:41;102263.06;;;14.85;53.33
25638;BME280;13496;51.040;13.680;2023-02-07T00:21:42;102257.00;;;14.85;53.25
25638;BME280;13496;51.040;13.680;2023-02-07T00:26:44;102264.09;;;14.83;53.16
25638;BME280;13496;51.040;13.680;2023-02-07T00:31:47;102264.31;;;14.80;53.25
25638;BME280;13496;51.040;13.680;2023-02-07T00:36:49;102266.06;;;14.79;53.17
25638;BME280;13496;51.040;13.680;2023-02-07T00:41:50;102264.31;;;14.80;53.19
25638;BME280;13496;51.040;13.680;2023-02-07T00:46:52;102263.47;;;14.79;53.09
25638;BME280;13496;51.040;13.680;2023-02-07T00:51:54;102267.78;;;14.80;53.13
25638;BME280;13496;51.040;13.680;2023-02-07T00:56:56;102273.84;;;14.81;53.03
25638;BME280;13496;51.040;13.680;2023-02-07T01:01:57;102275.81;;;14.77;52.99
25638;BME280;13496;51.040;13.680;2023-02-07T01:06:59;102279.44;;;14.74;53.17
25638;BME280;13496;51.040;13.680;2023-02-07T01:12:01;102270.88;;;14.72;52.96
25638;BME280;13496;51.040;13.680;2023-02-07T01:17:02;102261.34;;;14.71;53.16
25638;BME280;13496;51.040;13.680;2023-02-07T01:22:04;102252.47;;;14.74;53.13
25638;BME280;13496;51.040;13.680;2023-02-07T01:27:09;102256.25;;;14.70;53.12
25638;BME280;13496;51.040;13.680;2023-02-07T01:32:13;102259.81;;;14.69;53.11
25638;BME280;13496;51.040;13.680;2023-02-07T01:37:16;102253.63;;;14.70;52.92
25638;BME280;13496;51.040;13.680;2023-02-07T01:42:18;102256.25;;;14.70;53.00
25638;BME280;13496;51.040;13.680;2023-02-07T01:47:21;102259.81;;;14.69;53.01
25638;BME280;13496;51.040;13.680;2023-02-07T01:52:28;102275.66;;;14.66;53.14
25638;BME280;13496;51.040;13.680;2023-02-07T01:57:30;102265.22;;;14.66;53.06
25638;BME280;13496;51.040;13.680;2023-02-07T02:02:33;102272.13;;;14.67;53.02
25638;BME280;13496;51.040;13.680;2023-02-07T02:07:37;102264.38;;;14.65;53.01
25638;BME280;13496;51.040;13.680;2023-02-07T02:23:53;102234.19;;;14.61;52.91
25638;BME280;13496;51.040;13.680;2023-02-07T02:34:26;102229.97;;;14.59;52.91
25638;BME280;13496;51.040;13.680;2023-02-07T02:44:57;102247.53;;;14.57;52.88
25638;BME280;13496;51.040;13.680;2023-02-07T02:50:01;102252.84;;;14.55;52.94
25638;BME280;13496;51.040;13.680;2023-02-07T02:55:03;102245.75;;;14.57;52.84
25638;BME280;13496;51.040;13.680;2023-02-07T03:11:14;102231.31;;;14.51;52.88
25638;BME280;13496;51.040;13.680;2023-02-07T03:16:33;102232.44;;;14.47;53.00
25638;BME280;13496;51.040;13.680;2023-02-07T03:26:43;102225.34;;;14.49;52.92
25638;BME280;13496;51.040;13.680;2023-02-07T03:31:49;102231.44;;;14.50;52.85
25638;BME280;13496;51.040;13.680;2023-02-07T03:37:02;102238.69;;;14.45;52.89
25638;BME280;13496;51.040;13.680;2023-02-07T03:42:18;102239.44;;;14.47;52.90
25638;BME280;13496;51.040;13.680;2023-02-07T03:47:22;102233.38;;;14.46;52.79
25638;BME280;13496;51.040;13.680;2023-02-07T03:52:25;102238.59;;;14.46;52.77
25638;BME280;13496;51.040;13.680;2023-02-07T03:57:26;102230.00;;;14.44;52.86
25638;BME280;13496;51.040;13.680;2023-02-07T04:02:28;102225.81;;;14.42;52.97
25638;BME280;13496;51.040;13.680;2023-02-07T04:07:30;102220.50;;;14.43;52.82
25638;BME280;13496;51.040;13.680;2023-02-07T04:12:32;102214.47;;;14.43;52.91
25638;BME280;13496;51.040;13.680;2023-02-07T04:17:33;102215.47;;;14.40;52.84
25638;BME280;13496;51.040;13.680;2023-02-07T04:22:35;102210.06;;;14.43;52.86
25638;BME280;13496;51.040;13.680;2023-02-07T04:27:37;102212.75;;;14.42;52.73
25638;BME280;13496;51.040;13.680;2023-02-07T04:32:38;102224.97;;;14.41;52.83
25638;BME280;13496;51.040;13.680;2023-02-07T04:37:40;102233.75;;;14.40;52.70
25638;BME280;13496;51.040;13.680;2023-02-07T04:42:42;102226.88;;;14.39;52.71
25638;BME280;13496;51.040;13.680;2023-02-07T04:47:43;102243.25;;;14.41;52.88
25638;BME280;13496;51.040;13.680;2023-02-07T04:52:45;102235.63;;;14.38;52.69
25638;BME280;13496;51.040;13.680;2023-02-07T04:57:47;102245.34;;;14.36;52.63
25638;BME280;13496;51.040;13.680;2023-02-07T05:02:49;102253.06;;;14.38;52.70
25638;BME280;13496;51.040;13.680;2023-02-07T05:07:50;102255.78;;;14.36;52.80
25638;BME280;13496;51.040;13.680;2023-02-07T05:12:52;102236.03;;;14.32;52.67
25638;BME280;13496;51.040;13.680;2023-02-07T05:17:54;102251.50;;;14.35;52.63
25638;BME280;13496;51.040;13.680;2023-02-07T05:22:57;102251.72;;;14.32;53.02
25638;BME280;13496;51.040;13.680;2023-02-07T05:27:59;102247.31;;;14.33;53.33
25638;BME280;13496;51.040;13.680;2023-02-07T05:33:00;102253.19;;;14.36;53.36
25638;BME280;13496;51.040;13.680;2023-02-07T05:38:10;102247.97;;;14.36;53.38
25638;BME280;13496;51.040;13.680;2023-02-07T05:43:13;102256.50;;;14.38;53.40
25638;BME280;13496;51.040;13.680;2023-02-07T05:48:14;102263.72;;;14.35;53.52
25638;BME280;13496;51.040;13.680;2023-02-07T05:53:16;102269.03;;;14.33;53.62
25638;BME280;13496;51.040;13.680;2023-02-07T05:58:18;102268.22;;;14.33;53.58
25638;BME280;13496;51.040;13.680;2023-02-07T06:03:19;102266.44;;;14.33;53.50
25638;BME280;13496;51.040;13.680;2023-02-07T06:08:21;102243.88;;;14.32;53.45
25638;BME280;13496;51.040;13.680;2023-02-07T06:13:23;102229.13;;;14.31;53.44
25638;BME280;13496;51.040;13.680;2023-02-07T06:18:24;102224.31;;;14.25;53.56
25638;BME280;13496;51.040;13.680;2023-02-07T06:23:26;102217.00;;;14.30;53.42
25638;BME280;13496;51.040;13.680;2023-02-07T06:28:28;102230.19;;;14.28;53.48
25638;BME280;13496;51.040;13.680;2023-02-07T06:33:29;102228.47;;;14.27;53.46
25638;BME280;13496;51.040;13.680;2023-02-07T06:38:31;102238.09;;;14.27;53.51
25638;BME280;13496;51.040;13.680;2023-02-07T06:43:33;102250.41;;;14.25;53.41
25638;BME280;13496;51.040;13.680;2023-02-07T06:48:34;102251.38;;;14.24;53.44
25638;BME280;13496;51.040;13.680;2023-02-07T06:53:36;102263.28;;;14.28;53.54
25638;BME280;13496;51.040;13.680;2023-02-07T06:58:37;102266.09;;;14.25;53.53
25638;BME280;13496;51.040;13.680;2023-02-07T07:03:39;102271.19;;;14.26;53.44
25638;BME280;13496;51.040;13.680;2023-02-07T07:08:41;102280.81;;;14.26;53.48
25638;BME280;13496;51.040;13.680;2023-02-07T07:13:42;102276.53;;;14.25;53.58
25638;BME280;13496;51.040;13.680;2023-02-07T07:18:44;102265.97;;;14.26;53.51
25638;BME280;13496;51.040;13.680;2023-02-07T07:23:46;102268.50;;;14.28;53.54
25638;BME280;13496;51.040;13.680;2023-02-07T07:28:47;102274.88;;;14.24;53.64
25638;BME280;13496;51.040;13.680;2023-02-07T07:33:50;102287.69;;;14.27;53.47
25638;BME280;13496;51.040;13.680;2023-02-07T07:38:52;102289.28;;;14.29;53.53
25638;BME280;13496;51.040;13.680;2023-02-07T07:43:54;102301.41;;;14.31;53.56
25638;BME280;13496;51.040;13.680;2023-02-07T07:48:56;102291.59;;;14.34;53.39
25638;BME280;13496;51.040;13.680;2023-02-07T07:53:58;102301.66;;;14.40;53.34
25638;BME280;13496;51.040;13.680;2023-02-07T07:59:00;102300.72;;;14.41;53.43
25638;BME280;13496;51.040;13.680;2023-02-07T08:04:02;102301.28;;;14.46;53.46
25638;BME280;13496;51.040;13.680;2023-02-07T08:09:04;102298.47;;;14.49;53.41
25638;BME280;13496;51.040;13.680;2023-02-07T08:14:06;102295.50;;;14.56;53.30
25638;BME280;13496;51.040;13.680;2023-02-07T08:19:07;102297.78;;;14.60;53.26
25638;BME280;13496;51.040;13.680;2023-02-07T08:24:09;102300.13;;;14.65;53.29
25638;BME280;13496;51.040;13.680;2023-02-07T08:29:10;102295.25;;;14.73;53.16
25638;BME280;13496;51.040;13.680;2023-02-07T08:34:12;102296.72;;;14.77;53.09
25638;BME280;13496;51.040;13.680;2023-02-07T08:39:14;102300.78;;;14.81;53.02
25638;BME280;13496;51.040;13.680;2023-02-07T08:44:15;102307.59;;;14.84;53.15
25638;BME280;13496;51.040;13.680;2023-02-07T08:49:17;102316.09;;;14.87;53.07
25638;BME280;13496;51.040;13.680;2023-02-07T08:54:19;102319.41;;;14.89;53.18
25638;BME280;13496;51.040;13.680;2023-02-07T08:59:20;102310.13;;;14.98;53.06
25638;BME280;13496;51.040;13.680;2023-02-07T09:04:22;102316.75;;;15.04;52.84
25638;BME280;13496;51.040;13.680;2023-02-07T09:09:24;102316.44;;;15.08;52.94
25638;BME280;13496;51.040;13.680;2023-02-07T09:14:25;102320.50;;;15.12;53.01
25638;BME280;13496;51.040;13.680;2023-02-07T09:19:27;102306.28;;;15.16;52.92
25638;BME280;13496;51.040;13.680;2023-02-07T09:24:29;102304.31;;;15.20;52.75
25638;BME280;13496;51.040;13.680;2023-02-07T09:29:30;102309.34;;;15.23;52.70
25638;BME280;13496;51.040;13.680;2023-02-07T09:34:33;102300.47;;;15.25;52.64
25638;BME280;13496;51.040;13.680;2023-02-07T09:39:35;102299.00;;;15.34;52.71
25638;BME280;13496;51.040;13.680;2023-02-07T09:44:56;102285.91;;;15.34;52.59
25638;BME280;13496;51.040;13.680;2023-02-07T09:50:27;102287.16;;;15.41;52.50
25638;BME280;13496;51.040;13.680;2023-02-07T09:55:47;102277.25;;;15.46;52.85
25638;BME280;13496;51.040;13.680;2023-02-07T10:00:58;102274.41;;;15.49;52.84
25638;BME280;13496;51.040;13.680;2023-02-07T10:06:04;102274.94;;;15.55;52.74
25638;BME280;13496;51.040;13.680;2023-02-07T10:33:13;102267.38;;;15.76;52.66
25638;BME280;13496;51.040;13.680;2023-02-07T10:38:29;102257.53;;;15.79;52.57
25638;BME280;13496;51.040;13.680;2023-02-07T10:43:34;102265.91;;;15.84;52.66
25638;BME280;13496;51.040;13.680;2023-02-07T10:48:37;102264.00;;;15.86;52.25
25638;BME280;13496;51.040;13.680;2023-02-07T10:53:50;102272.59;;;15.88;52.38
25638;BME280;13496;51.040;13.680;2023-02-07T10:59:00;102267.16;;;15.91;52.34
25638;BME280;13496;51.040;13.680;2023-02-07T11:04:21;102273.84;;;15.95;52.35
25638;BME280;13496;51.040;13.680;2023-02-07T11:09:23;102264.84;;;16.00;52.29
25638;BME280;13496;51.040;13.680;2023-02-07T11:14:25;102259.59;;;16.00;52.00
25638;BME280;13496;51.040;13.680;2023-02-07T11:19:29;102260.31;;;16.02;52.57
25638;BME280;13496;51.040;13.680;2023-02-07T11:24:34;102248.69;;;16.06;52.31
25638;BME280;13496;51.040;13.680;2023-02-07T11:29:43;102250.22;;;16.08;52.41
25638;BME280;13496;51.040;13.680;2023-02-07T11:34:47;102243.34;;;16.07;51.80
25638;BME280;13496;51.040;13.680;2023-02-07T11:39:52;102234.44;;;16.10;52.31
25638;BME280;13496;51.040;13.680;2023-02-07T11:44:55;102244.91;;;16.10;51.93
25638;BME280;13496;51.040;13.680;2023-02-07T11:49:59;102235.25;;;16.10;52.30
25638;BME280;13496;51.040;13.680;2023-02-07T11:55:13;102234.44;;;16.10;51.90
25638;BME280;13496;51.040;13.680;2023-02-07T12:00:23;102245.63;;;16.12;52.23
25638;BME280;13496;51.040;13.680;2023-02-07T12:05:28;102242.16;;;16.11;52.40
25638;BME280;13496;51.040;13.680;2023-02-07T12:10:34;102252.50;;;16.13;52.05
25638;BME280;13496;51.040;13.680;2023-02-07T12:15:41;102232.63;;;16.10;52.48
25638;BME280;13496;51.040;13.680;2023-02-07T12:20:59;102224.31;;;16.16;51.87
25638;BME280;13496;51.040;13.680;2023-02-07T12:26:18;102214.72;;;16.17;52.10
25638;BME280;13496;51.040;13.680;2023-02-07T12:31:28;102213.75;;;16.18;52.38
25638;BME280;13496;51.040;13.680;2023-02-07T12:36:45;102207.56;;;16.19;51.96
25638;BME280;13496;51.040;13.680;2023-02-07T12:42:02;102202.53;;;16.16;52.28
25638;BME280;13496;51.040;13.680;2023-02-07T12:47:15;102196.13;;;16.20;51.79
25638;BME280;13496;51.040;13.680;2023-02-07T12:58:03;102197.81;;;16.21;51.72
25638;BME280;13496;51.040;13.680;2023-02-07T13:03:26;102183.97;;;16.19;52.26
25638;BME280;13496;51.040;13.680;2023-02-07T13:08:42;102191.63;;;16.22;51.61
25638;BME280;13496;51.040;13.680;2023-02-07T13:19:30;102186.59;;;16.19;52.21
25638;BME280;13496;51.040;13.680;2023-02-07T13:24:36;102171.09;;;16.16;51.70
25638;BME280;13496;51.040;13.680;2023-02-07T13:29:40;102161.59;;;16.15;51.59
25638;BME280;13496;51.040;13.680;2023-02-07T13:34:48;102170.19;;;16.17;52.02
25638;BME280;13496;51.040;13.680;2023-02-07T13:39:56;102169.44;;;16.15;51.86
25638;BME280;13496;51.040;13.680;2023-02-07T13:45:12;102160.63;;;16.16;51.89
25638;BME280;13496;51.040;13.680;2023-02-07T13:55:41;102158.00;;;16.16;52.17
25638;BME280;13496;51.040;13.680;2023-02-07T14:05:48;102152.06;;;16.14;52.01
25638;BME280;13496;51.040;13.680;2023-02-07T14:10:52;102149.94;;;16.19;52.09
25638;BME280;13496;51.040;13.680;2023-02-07T14:15:56;102150.66;;;16.21;51.70
25638;BME280;13496;51.040;13.680;2023-02-07T14:21:01;102140.28;;;16.19;51.94
25638;BME280;13496;51.040;13.680;2023-02-07T14:31:46;102121.13;;;16.19;51.48
25638;BME280;13496;51.040;13.680;2023-02-07T14:36:48;102120.66;;;16.14;51.92
25638;BME280;13496;51.040;13.680;2023-02-07T14:41:50;102125.88;;;16.14;51.82
25638;BME280;13496;51.040;13.680;2023-02-07T14:46:55;102125.06;;;16.13;52.07
25638;BME280;13496;51.040;13.680;2023-02-07T14:52:07;102125.16;;;16.12;51.41
25638;BME280;13496;51.040;13.680;2023-02-07T14:57:35;102113.00;;;16.11;52.06
25638;BME280;13496;51.040;13.680;2023-02-07T15:02:55;102119.28;;;16.08;52.11
25638;BME280;13496;51.040;13.680;2023-02-07T15:13:06;102120.59;;;16.03;51.87
25638;BME280;13496;51.040;13.680;2023-02-07T15:18:16;102121.53;;;16.02;51.65
25638;BME280;13496;51.040;13.680;2023-02-07T15:23:19;102132.00;;;16.02;51.63
25638;BME280;13496;51.040;13.680;2023-02-07T15:28:25;102140.94;;;15.99;51.73
25638;BME280;13496;51.040;13.680;2023-02-07T15:33:33;102144.59;;;15.96;51.80
25638;BME280;13496;51.040;13.680;2023-02-07T15:38:37;102169.75;;;15.99;51.69
25638;BME280;13496;51.040;13.680;2023-02-07T15:43:52;102153.63;;;15.92;52.26
25638;BME280;13496;51.040;13.680;2023-02-07T15:48:55;102157.19;;;15.91;51.93
25638;BME280;13496;51.040;13.680;2023-02-07T15:53:59;102168.50;;;15.92;52.23
25638;BME280;13496;51.040;13.680;2023-02-07T15:59:08;102170.38;;;15.90;51.83
25638;BME280;13496;51.040;13.680;2023-02-07T16:04:11;102182.78;;;15.88;52.17
25638;BME280;13496;51.040;13.680;2023-02-07T16:09:36;102186.31;;;15.87;52.31
25638;BME280;13496;51.040;13.680;2023-02-07T16:14:39;102194.16;;;15.87;52.00
25638;BME280;13496;51.040;13.680;2023-02-07T16:19:44;102190.94;;;15.83;52.08
25638;BME280;13496;51.040;13.680;2023-02-07T16:24:46;102224.97;;;15.83;52.01
25638;BME280;13496;51.040;13.680;2023-02-07T16:29:50;102212.94;;;15.81;52.09
25638;BME280;13496;51.040;13.680;2023-02-07T16:34:52;102226.13;;;15.79;52.23
25638;BME280;13496;51.040;13.680;2023-02-07T16:39:53;102226.03;;;15.81;52.18
25638;BME280;13496;51.040;13.680;2023-02-07T16:44:55;102232.09;;;15.81;52.19
25638;BME280;13496;51.040;13.680;2023-02-07T16:49:57;102234.94;;;15.78;52.33
25638;BME280;13496;51.040;13.680;2023-02-07T16:54:59;102244.69;;;15.76;52.53
25638;BME280;13496;51.040;13.680;2023-02-07T17:00:02;102245.41;;;15.78;51.99
25638;BME280;13496;51.040;13.680;2023-02-07T17:05:04;102240.06;;;15.80;51.94
25638;BME280;13496;51.040;13.680;2023-02-07T17:10:17;102236.50;;;15.81;51.63
25638;BME280;13496;51.040;13.680;2023-02-07T17:15:20;102241.81;;;15.79;52.28
25638;BME280;13496;51.040;13.680;2023-02-07T17:20:30;102238.28;;;15.80;52.36
25638;BME280;13496;51.040;13.680;2023-02-07T17:25:33;102243.63;;;15.79;52.28
25638;BME280;13496;51.040;13.680;2023-02-07T17:30:39;102242.69;;;15.80;52.58
25638;BME280;13496;51.040;13.680;2023-02-07T17:35:41;102232.59;;;15.86;52.31
25638;BME280;13496;51.040;13.680;2023-02-07T17:40:43;102238.16;;;15.82;52.34
25638;BME280;13496;51.040;13.680;2023-02-07T17:45:44;102243.28;;;15.83;52.42
25638;BME280;13496;51.040;13.680;2023-02-07T17:50:46;102236.91;;;15.87;52.54
25638;BME280;13496;51.040;13.680;2023-02-07T17:55:49;102239.53;;;15.87;52.39
25638;BME280;13496;51.040;13.680;2023-02-07T18:00:51;102250.63;;;15.91;52.51
25638;BME280;13496;51.040;13.680;2023-02-07T18:05:53;102253.13;;;15.92;52.29
25638;BME280;13496;51.040;13.680;2023-02-07T18:10:57;102251.44;;;15.91;52.66
25638;BME280;13496;51.040;13.680;2023-02-07T18:16:02;102253.34;;;15.89;52.88
25638;BME280;13496;51.040;13.680;2023-02-07T18:21:03;102249.88;;;15.89;52.83
25638;BME280;13496;51.040;13.680;2023-02-07T18:26:05;102260.97;;;15.92;53.08
25638;BME280;13496;51.040;13.680;2023-02-07T18:31:12;102270.50;;;15.93;52.77
25638;BME280;13496;51.040;13.680;2023-02-07T18:36:15;102272.41;;;15.91;52.83
25638;BME280;13496;51.040;13.680;2023-02-07T18:41:20;102276.81;;;15.91;52.50
25638;BME280;13496;51.040;13.680;2023-02-07T18:46:23;102278.25;;;15.95;52.65
25638;BME280;13496;51.040;13.680;2023-02-07T18:51:25;102276.19;;;15.87;53.07
25638;BME280;13496;51.040;13.680;2023-02-07T18:56:26;102270.06;;;16.00;52.95
25638;BME280;13496;51.040;13.680;2023-02-07T19:01:28;102261.88;;;16.04;53.06
25638;BME280;13496;51.040;13.680;2023-02-07T19:06:32;102264.63;;;16.03;53.08
25638;BME280;13496;51.040;13.680;2023-02-07T19:11:35;102265.31;;;16.05;53.33
25638;BME280;13496;51.040;13.680;2023-02-07T19:16:37;102257.06;;;15.98;53.76
25638;BME280;13496;51.040;13.680;2023-02-07T19:21:40;102265.31;;;16.05;53.42
25638;BME280;13496;51.040;13.680;2023-02-07T19:26:41;102257.69;;;16.02;53.76
25638;BME280;13496;51.040;13.680;2023-02-07T19:31:43;102250.28;;;15.95;53.77
25638;BME280;13496;51.040;13.680;2023-02-07T19:36:45;102262.53;;;15.95;54.00
25638;BME280;13496;51.040;13.680;2023-02-07T19:41:47;102252.16;;;15.93;54.60
25638;BME280;13496;51.040;13.680;2023-02-07T19:46:49;102242.66;;;15.92;54.20
25638;BME280;13496;51.040;13.680;2023-02-07T19:51:50;102241.81;;;15.92;54.18
25638;BME280;13496;51.040;13.680;2023-02-07T19:56:52;102241.19;;;15.88;54.42
25638;BME280;13496;51.040;13.680;2023-02-07T20:01:54;102246.66;;;15.85;54.51
25638;BME280;13496;51.040;13.680;2023-02-07T20:06:55;102244.22;;;15.82;54.46
25638;BME280;13496;51.040;13.680;2023-02-07T20:11:57;102248.63;;;15.82;54.29
25638;BME280;13496;51.040;13.680;2023-02-07T20:16:59;102248.75;;;15.80;54.13
25638;BME280;13496;51.040;13.680;2023-02-07T20:22:01;102247.19;;;15.78;54.30
25638;BME280;13496;51.040;13.680;2023-02-07T20:27:02;102249.47;;;15.82;53.45
25638;BME280;13496;51.040;13.680;2023-02-07T20:32:04;102239.22;;;15.79;54.04
25638;BME280;13496;51.040;13.680;2023-02-07T20:37:07;102236.84;;;15.76;54.03
25638;BME280;13496;51.040;13.680;2023-02-07T20:42:08;102230.66;;;15.77;54.10
25638;BME280;13496;51.040;13.680;2023-02-07T20:47:11;102237.88;;;15.73;54.09
25638;BME280;13496;51.040;13.680;2023-02-07T20:52:12;102224.88;;;15.72;53.96
25638;BME280;13496;51.040;13.680;2023-02-07T20:57:14;102229.28;;;15.71;54.36
25638;BME280;13496;51.040;13.680;2023-02-07T21:02:16;102235.59;;;15.69;53.98
25638;BME280;13496;51.040;13.680;2023-02-07T21:07:17;102241.03;;;15.66;54.31
25638;BME280;13496;51.040;13.680;2023-02-07T21:12:19;102245.31;;;15.67;54.38
25638;BME280;13496;51.040;13.680;2023-02-07T21:17:21;102235.88;;;15.64;54.22
25638;BME280;13496;51.040;13.680;2023-02-07T21:22:22;102237.97;;;15.59;54.34
25638;BME280;13496;51.040;13.680;2023-02-07T21:27:24;102246.44;;;15.63;54.08
25638;BME280;13496;51.040;13.680;2023-02-07T21:32:26;102248.13;;;15.64;54.25
25638;BME280;13496;51.040;13.680;2023-02-07T21:37:27;102230.13;;;15.59;53.65
25638;BME280;13496;51.040;13.680;2023-02-07T21:42:29;102225.94;;;15.57;53.99
25638;BME280;13496;51.040;13.680;2023-02-07T21:47:30;102233.78;;;15.57;53.79
25638;BME280;13496;51.040;13.680;2023-02-07T21:52:32;102239.34;;;15.52;53.91
25638;BME280;13496;51.040;13.680;2023-02-07T21:57:34;102250.44;;;15.56;54.21
25638;BME280;13496;51.040;13.680;2023-02-07T22:02:36;102252.44;;;15.52;53.55
25638;BME280;13496;51.040;13.680;2023-02-07T22:07:38;102261.22;;;15.51;54.24
25638;BME280;13496;51.040;13.680;2023-02-07T22:12:40;102250.84;;;15.49;53.77
25638;BME280;13496;51.040;13.680;2023-02-07T22:17:41;102258.69;;;15.49;54.22
25638;BME280;13496;51.040;13.680;2023-02-07T22:22:43;102264.88;;;15.48;54.19
25638;BME280;13496;51.040;13.680;2023-02-07T22:27:45;102268.44;;;15.47;53.69
25638;BME280;13496;51.040;13.680;2023-02-07T22:32:46;102263.22;;;15.47;54.08
25638;BME280;13496;51.040;13.680;2023-02-07T22:37:48;102256.41;;;15.45;54.01
25638;BME280;13496;51.040;13.680;2023-02-07T22:42:50;102252.13;;;15.44;54.00
25638;BME280;13496;51.040;13.680;2023-02-07T22:47:51;102248.75;;;15.42;53.40
25638;BME280;13496;51.040;13.680;2023-02-07T22:52:53;102241.16;;;15.39;54.15
25638;BME280;13496;51.040;13.680;2023-02-07T22:57:54;102241.03;;;15.40;53.79
25638;BME280;13496;51.040;13.680;2023-02-07T23:02:59;102239.56;;;15.36;53.80
25638;BME280;13496;51.040;13.680;2023-02-07T23:08:00;102244.81;;;15.36;53.52
25638;BME280;13496;51.040;13.680;2023-02-07T23:13:02;102248.38;;;15.35;53.68
25638;BME280;13496;51.040;13.680;2023-02-07T23:18:04;102254.53;;;15.34;53.43
25638;BME280;13496;51.040;13.680;2023-02-07T23:23:06;102255.47;;;15.33;53.96
25638;BME280;13496;51.040;13.680;2023-02-07T23:28:07;102262.56;;;15.31;53.45
25638;BME280;13496;51.040;13.680;2023-02-07T23:33:09;102270.66;;;15.28;53.33
25638;BME280;13496;51.040;13.680;2023-02-07T23:38:11;102261.94;;;15.28;53.98
25638;BME280;13496;51.040;13.680;2023-02-07T23:43:12;102267.19;;;15.28;53.63
25638;BME280;13496;51.040;13.680;2023-02-07T23:48:14;102277.03;;;15.24;53.88
25638;BME280;13496;51.040;13.680;2023-02-07T23:53:15;102273.47;;;15.25;53.34
25638;BME280;13496;51.040;13.680;2023-02-07T23:58:17;102274.44;;;15.24;53.73
